Time;durP1;ratioP1;P1;durP2;ratioP2;P2;SDS_P1;SDS_P2;PMS_P1;PMS_P2;Temp;Humidity;BMP_temperature;BMP_pressure;BME280_temperature;BME280_humidity;BME280_pressure;Samples;Min_cycle;Max_cycle;Signal;HPM_P1;HPM_P2
2022/09/26 00:01:25;;;;;;;7.63;4.00;;;13.60;99.90;;;;;;5026062;28;20242;-70
2022/09/26 00:03:57;;;;;;;6.77;3.60;;;13.60;99.90;;;;;;5025521;28;20209;-70
2022/09/26 00:06:23;;;;;;;5.90;3.33;;;13.50;99.90;;;;;;5024555;28;20242;-72
2022/09/26 00:08:49;;;;;;;3.83;3.10;;;13.60;99.90;;;;;;5022603;28;20890;-70
2022/09/26 00:11:19;;;;;;;6.50;3.20;;;13.50;99.90;;;;;;5008602;28;20215;-71
2022/09/26 00:13:45;;;;;;;8.40;3.60;;;13.50;99.90;;;;;;5006137;28;20204;-70
2022/09/26 00:16:11;;;;;;;8.03;3.20;;;13.60;99.90;;;;;;5012492;28;20179;-71
2022/09/26 00:18:38;;;;;;;6.47;3.13;;;13.40;99.90;;;;;;5007572;28;20208;-70
2022/09/26 00:21:06;;;;;;;4.70;3.63;;;13.40;99.90;;;;;;5005363;28;20212;-70
2022/09/26 00:23:32;;;;;;;5.10;3.20;;;13.30;99.90;;;;;;5018949;28;20299;-70
2022/09/26 00:25:58;;;;;;;4.33;3.30;;;13.50;99.90;;;;;;5022829;28;20266;-72
2022/09/26 00:28:24;;;;;;;6.20;3.77;;;13.50;99.90;;;;;;5028230;28;20200;-70
2022/09/26 00:30:50;;;;;;;5.33;3.30;;;13.40;99.90;;;;;;5022875;28;20208;-70
2022/09/26 00:33:16;;;;;;;6.63;3.30;;;13.40;99.90;;;;;;5022723;28;20210;-70
2022/09/26 00:35:52;;;;;;;4.93;3.50;;;13.40;99.90;;;;;;5025438;28;20207;-70
2022/09/26 00:38:18;;;;;;;6.80;3.60;;;13.30;99.90;;;;;;5029100;28;20204;-70
2022/09/26 00:40:45;;;;;;;7.03;3.50;;;13.30;99.90;;;;;;5026491;28;20185;-70
2022/09/26 00:43:28;;;;;;;6.30;3.63;;;13.40;99.90;;;;;;5029820;28;20178;-70
2022/09/26 00:46:15;;;;;;;5.43;3.50;;;13.20;99.90;;;;;;5024640;28;20215;-70
2022/09/26 00:48:44;;;;;;;4.93;3.53;;;13.20;99.90;;;;;;5019375;28;20204;-70
2022/09/26 00:51:10;;;;;;;5.93;3.20;;;13.20;99.90;;;;;;5024509;28;20205;-70
2022/09/26 00:53:40;;;;;;;7.23;3.40;;;13.30;99.90;;;;;;5014035;28;20220;-72
2022/09/26 00:56:14;;;;;;;7.47;3.50;;;13.40;99.90;;;;;;5008003;28;20209;-70
2022/09/26 00:58:48;;;;;;;6.30;3.30;;;13.40;99.90;;;;;;5028391;28;20185;-72
2022/09/26 01:01:15;;;;;;;8.00;3.37;;;13.40;99.90;;;;;;5028338;28;20175;-70
2022/09/26 01:03:42;;;;;;;4.73;3.40;;;13.40;99.90;;;;;;5027474;28;20204;-71
2022/09/26 01:06:08;;;;;;;5.23;3.00;;;13.40;99.90;;;;;;5026050;28;20752;-70
2022/09/26 01:08:39;;;;;;;9.37;3.43;;;13.20;99.90;;;;;;5025439;28;20273;-70
2022/09/26 01:11:05;;;;;;;3.57;2.93;;;13.30;99.90;;;;;;5027925;28;20212;-71
2022/09/26 01:13:33;;;;;;;7.20;3.70;;;13.40;99.90;;;;;;5027665;28;20200;-70
2022/09/26 01:15:58;;;;;;;4.97;3.20;;;13.30;99.90;;;;;;5024865;28;20204;-69
2022/09/26 01:18:24;;;;;;;5.40;3.10;;;13.30;99.90;;;;;;5028413;28;20295;-70
2022/09/26 01:21:05;;;;;;;5.87;3.30;;;13.40;99.90;;;;;;5028123;28;20623;-70
2022/09/26 01:24:00;;;;;;;7.03;3.30;;;13.30;99.90;;;;;;5025861;28;20254;-70
2022/09/26 01:26:50;;;;;;;6.17;2.97;;;13.10;99.90;;;;;;5022681;28;20568;-71
2022/09/26 01:29:43;;;;;;;6.67;3.40;;;13.10;99.90;;;;;;5028857;28;20200;-70
2022/09/26 01:32:47;;;;;;;6.03;3.37;;;13.10;99.90;;;;;;5024365;28;20205;-70
2022/09/26 01:35:28;;;;;;;7.23;3.20;;;13.20;99.90;;;;;;5013165;28;20219;-71
2022/09/26 01:38:19;;;;;;;8.10;3.87;;;13.10;99.90;;;;;;5023084;28;20706;-70
2022/09/26 01:41:26;;;;;;;6.60;3.27;;;13.10;99.90;;;;;;5022889;28;20577;-70
2022/09/26 01:43:58;;;;;;;3.70;2.90;;;13.00;99.90;;;;;;5008708;28;20631;-70
2022/09/26 01:46:30;;;;;;;8.17;3.33;;;12.90;99.90;;;;;;5013935;28;20176;-71
2022/09/26 01:49:23;;;;;;;5.23;3.10;;;13.00;99.90;;;;;;5004045;28;20222;-69
2022/09/26 01:51:59;;;;;;;6.33;3.40;;;13.20;99.90;;;;;;5027610;28;20322;-70
2022/09/26 01:54:33;;;;;;;9.37;3.37;;;13.20;99.90;;;;;;5029842;28;20212;-70
2022/09/26 01:57:03;;;;;;;6.70;3.10;;;13.20;99.90;;;;;;5027813;28;20200;-69
2022/09/26 01:59:39;;;;;;;6.10;3.30;;;13.20;99.90;;;;;;5020748;28;20200;-70
2022/09/26 02:02:16;;;;;;;6.20;3.50;;;13.20;99.90;;;;;;5013798;28;20200;-70
2022/09/26 02:04:43;;;;;;;5.70;3.10;;;13.30;99.90;;;;;;5025653;28;20187;-70
2022/09/26 02:07:27;;;;;;;5.37;3.43;;;13.10;99.90;;;;;;5024807;28;20180;-72
2022/09/26 02:09:58;;;;;;;6.63;3.27;;;13.10;99.90;;;;;;5023757;28;20204;-69
2022/09/26 02:12:32;;;;;;;4.37;3.07;;;13.20;99.90;;;;;;5026882;28;20215;-70
2022/09/26 02:15:02;;;;;;;7.83;3.00;;;13.10;99.90;;;;;;5023472;28;20212;-70
2022/09/26 02:17:34;;;;;;;5.97;3.10;;;13.20;99.90;;;;;;5010131;28;20212;-70
2022/09/26 02:20:09;;;;;;;5.60;2.90;;;13.30;99.90;;;;;;5028058;28;20290;-71
2022/09/26 02:22:35;;;;;;;6.90;3.00;;;13.20;99.90;;;;;;5019786;28;20509;-70
2022/09/26 02:25:03;;;;;;;4.83;3.33;;;13.20;99.90;;;;;;5022652;28;20177;-70
2022/09/26 02:27:29;;;;;;;6.47;3.10;;;12.90;99.90;;;;;;5009075;28;20200;-70
2022/09/26 02:29:55;;;;;;;6.97;3.10;;;12.90;99.90;;;;;;5025962;28;20663;-70
2022/09/26 02:32:29;;;;;;;4.63;3.37;;;13.00;99.90;;;;;;5025890;28;20226;-71
2022/09/26 02:34:55;;;;;;;8.80;3.50;;;12.90;99.90;;;;;;5008578;28;20211;-72
2022/09/26 02:37:21;;;;;;;4.53;3.00;;;13.00;99.90;;;;;;5029200;28;20199;-72
2022/09/26 02:39:49;;;;;;;5.03;2.93;;;13.10;99.90;;;;;;5024466;28;20208;-70
2022/09/26 02:42:43;;;;;;;5.23;2.90;;;13.20;99.90;;;;;;5025588;28;20276;-70
2022/09/26 02:45:43;;;;;;;5.77;3.10;;;13.20;99.90;;;;;;5025348;28;20205;-70
2022/09/26 02:48:18;;;;;;;5.10;2.87;;;13.20;99.90;;;;;;5003719;28;20205;-70
2022/09/26 02:50:56;;;;;;;4.63;3.07;;;13.20;99.90;;;;;;5010447;28;20220;-70
2022/09/26 02:53:39;;;;;;;4.57;3.43;;;13.20;99.90;;;;;;5016813;28;20211;-70
2022/09/26 02:56:20;;;;;;;4.37;2.73;;;13.20;99.90;;;;;;5019151;28;20212;-69
2022/09/26 02:58:53;;;;;;;10.33;3.90;;;13.20;99.90;;;;;;5020231;28;20208;-70
2022/09/26 03:01:42;;;;;;;7.67;3.07;;;13.30;99.90;;;;;;5019304;28;20531;-72
2022/09/26 03:04:18;;;;;;;5.03;3.40;;;13.20;99.90;;;;;;5019270;28;20291;-70
2022/09/26 03:06:48;;;;;;;7.77;3.07;;;13.10;99.90;;;;;;5020696;28;20549;-70
2022/09/26 03:09:16;;;;;;;6.43;3.23;;;13.20;99.90;;;;;;5004605;28;20618;-70
2022/09/26 03:11:43;;;;;;;5.90;2.90;;;13.20;99.90;;;;;;5022382;28;20350;-70
2022/09/26 03:14:10;;;;;;;7.07;3.20;;;13.20;99.90;;;;;;5006809;28;20213;-70
2022/09/26 03:16:41;;;;;;;7.63;3.00;;;13.30;99.90;;;;;;5024471;28;20179;-70
2022/09/26 03:19:35;;;;;;;6.63;3.53;;;13.30;99.90;;;;;;5018944;28;20834;-70
2022/09/26 03:22:01;;;;;;;5.03;3.00;;;13.30;99.90;;;;;;5015960;28;20321;-71
2022/09/26 03:24:27;;;;;;;6.00;3.40;;;13.20;99.90;;;;;;5022248;28;20208;-70
2022/09/26 03:26:54;;;;;;;7.97;2.93;;;13.20;99.90;;;;;;5018569;28;20205;-69
2022/09/26 03:29:19;;;;;;;4.20;3.17;;;13.30;99.90;;;;;;5019652;28;20287;-70
2022/09/26 03:31:45;;;;;;;6.80;3.30;;;13.20;99.90;;;;;;5020623;28;20689;-70
2022/09/26 03:34:11;;;;;;;7.13;2.80;;;13.30;99.90;;;;;;5018687;28;20204;-70
2022/09/26 03:36:38;;;;;;;4.60;2.73;;;13.20;99.90;;;;;;5022620;28;20224;-71
2022/09/26 03:39:04;;;;;;;6.43;2.80;;;13.20;99.90;;;;;;5020899;28;20201;-71
2022/09/26 03:41:30;;;;;;;4.10;2.70;;;13.20;99.90;;;;;;5024779;28;20207;-71
2022/09/26 03:43:56;;;;;;;4.33;2.90;;;13.10;99.90;;;;;;5018650;28;20706;-72
2022/09/26 03:46:23;;;;;;;6.50;3.50;;;13.00;99.90;;;;;;5007782;28;20222;-70
2022/09/26 03:48:49;;;;;;;5.00;3.10;;;13.00;99.90;;;;;;5019839;28;20287;-70
2022/09/26 03:51:16;;;;;;;5.97;3.13;;;13.10;99.90;;;;;;5019577;28;20252;-70
2022/09/26 03:53:43;;;;;;;4.07;3.07;;;13.10;99.90;;;;;;5010269;28;20258;-70
2022/09/26 03:56:14;;;;;;;4.23;3.43;;;13.10;99.90;;;;;;5000911;28;20676;-71
2022/09/26 03:58:41;;;;;;;3.70;2.83;;;13.10;99.90;;;;;;5020255;28;20196;-70
2022/09/26 04:01:10;;;;;;;5.37;3.37;;;13.10;99.90;;;;;;5005934;28;20172;-70
2022/09/26 04:03:37;;;;;;;11.93;3.53;;;13.10;99.90;;;;;;5008852;28;20231;-70
2022/09/26 04:06:03;;;;;;;8.43;3.13;;;13.20;99.90;;;;;;5016120;28;20263;-70
2022/09/26 04:08:30;;;;;;;5.83;3.00;;;13.10;99.90;;;;;;5020834;28;20212;-71
2022/09/26 04:11:03;;;;;;;4.43;3.00;;;13.00;99.90;;;;;;5017759;28;20204;-71
2022/09/26 04:13:30;;;;;;;6.70;3.20;;;13.00;99.90;;;;;;5024511;28;20171;-70
2022/09/26 04:15:56;;;;;;;6.97;3.30;;;13.00;99.90;;;;;;5008345;28;20230;-70
2022/09/26 04:18:22;;;;;;;4.53;3.10;;;13.00;99.90;;;;;;5022292;28;20276;-70
2022/09/26 04:20:47;;;;;;;8.40;3.80;;;13.00;99.90;;;;;;5024343;28;20670;-70
2022/09/26 04:23:13;;;;;;;6.07;3.07;;;12.90;99.90;;;;;;5008404;28;20192;-70
2022/09/26 04:25:39;;;;;;;6.33;3.17;;;13.00;99.90;;;;;;5023368;28;20173;-70
2022/09/26 04:28:04;;;;;;;7.87;3.50;;;12.80;99.90;;;;;;5022062;28;20268;-71
2022/09/26 04:30:30;;;;;;;6.53;3.17;;;12.90;99.90;;;;;;5010926;28;20200;-70
2022/09/26 04:32:56;;;;;;;6.80;3.30;;;12.90;99.90;;;;;;5001089;28;20213;-70
2022/09/26 04:35:23;;;;;;;6.87;3.50;;;12.80;99.90;;;;;;5021943;28;20212;-70
2022/09/26 04:37:49;;;;;;;5.67;3.07;;;12.80;99.90;;;;;;5024356;28;20679;-70
2022/09/26 04:40:15;;;;;;;7.03;3.23;;;12.80;99.90;;;;;;5039424;23;20169;-74
2022/09/26 04:42:41;;;;;;;6.43;3.73;;;12.80;99.90;;;;;;5060955;28;20205;-75
2022/09/26 04:45:07;;;;;;;8.27;3.40;;;12.80;99.90;;;;;;5032637;28;20205;-75
2022/09/26 04:47:33;;;;;;;13.33;7.43;;;12.70;99.90;;;;;;5049335;28;20245;-75
2022/09/26 04:49:58;;;;;;;8.30;4.07;;;12.70;99.90;;;;;;5048754;28;20212;-75
2022/09/26 04:52:25;;;;;;;13.80;5.20;;;12.70;99.90;;;;;;5036625;28;20672;-76
2022/09/26 04:54:51;;;;;;;9.97;6.40;;;12.60;99.90;;;;;;5016858;28;20252;-74
2022/09/26 04:57:16;;;;;;;6.63;4.47;;;12.70;99.90;;;;;;5034385;28;20618;-74
2022/09/26 04:59:42;;;;;;;9.60;4.77;;;12.70;99.90;;;;;;5028961;28;20205;-73
2022/09/26 05:02:08;;;;;;;5.80;3.87;;;12.70;99.90;;;;;;5038648;28;20209;-73
2022/09/26 05:04:33;;;;;;;7.73;4.63;;;12.70;99.90;;;;;;5035602;28;20172;-73
2022/09/26 05:06:59;;;;;;;10.93;4.10;;;12.70;99.90;;;;;;5027081;28;20181;-73
2022/09/26 05:09:25;;;;;;;7.77;4.07;;;12.60;99.90;;;;;;5017465;28;20195;-76
2022/09/26 05:11:51;;;;;;;8.83;6.00;;;12.60;99.90;;;;;;5034755;28;20216;-76
2022/09/26 05:14:16;;;;;;;11.17;5.50;;;12.70;99.90;;;;;;5033859;28;20586;-76
2022/09/26 05:16:42;;;;;;;13.20;5.60;;;12.70;99.90;;;;;;5029214;28;20172;-76
2022/09/26 05:19:07;;;;;;;9.90;4.37;;;12.70;99.90;;;;;;5021435;28;20552;-76
2022/09/26 05:21:33;;;;;;;5.77;3.57;;;12.70;99.90;;;;;;5035333;28;20216;-76
2022/09/26 05:26:47;;;;;;;9.03;3.90;;;12.70;99.90;;;;;;5028595;28;20334;-76
2022/09/26 05:29:12;;;;;;;8.33;4.83;;;12.80;99.90;;;;;;5036503;28;20583;-77
2022/09/26 05:31:39;;;;;;;8.07;3.90;;;12.80;99.90;;;;;;5029494;28;20195;-76
2022/09/26 05:34:06;;;;;;;9.37;4.67;;;12.80;99.90;;;;;;5008754;28;20668;-76
2022/09/26 05:36:32;;;;;;;11.63;4.90;;;12.90;99.90;;;;;;5038953;28;20207;-76
2022/09/26 05:38:58;;;;;;;7.47;3.93;;;13.00;99.90;;;;;;5035715;28;20295;-76
2022/09/26 05:41:30;;;;;;;9.73;5.57;;;13.10;99.90;;;;;;5016452;28;20299;-77
2022/09/26 05:43:55;;;;;;;6.07;4.33;;;13.20;99.90;;;;;;5008776;28;20284;-77
2022/09/26 05:46:21;;;;;;;9.67;4.97;;;13.20;99.90;;;;;;5026498;28;20260;-76
2022/09/26 05:48:47;;;;;;;15.67;7.70;;;13.20;99.90;;;;;;5032836;28;20235;-75
2022/09/26 05:51:16;;;;;;;8.47;4.80;;;13.30;99.90;;;;;;5010486;28;20280;-76
2022/09/26 05:53:44;;;;;;;7.80;4.33;;;13.40;99.90;;;;;;5037423;28;20219;-76
2022/09/26 05:56:11;;;;;;;6.33;3.63;;;13.50;99.90;;;;;;5032842;28;20251;-76
2022/09/26 05:58:38;;;;;;;6.70;4.38;;;13.60;99.90;;;;;;5008387;28;20222;-74
2022/09/26 06:01:06;;;;;;;5.57;3.17;;;13.80;99.90;;;;;;5030161;28;20203;-73
2022/09/26 06:03:35;;;;;;;9.15;5.30;;;14.40;99.90;;;;;;5035198;28;20200;-74
2022/09/26 06:06:02;;;;;;;6.90;4.00;;;15.00;99.90;;;;;;5015769;28;20291;-75
2022/09/26 06:08:28;;;;;;;6.20;3.70;;;15.50;99.90;;;;;;5026792;28;20196;-74
2022/09/26 06:11:01;;;;;;;5.18;3.40;;;15.50;99.90;;;;;;5032915;28;20215;-76
2022/09/26 06:13:27;;;;;;;6.57;2.95;;;15.80;99.90;;;;;;5018701;28;20706;-74
2022/09/26 06:15:53;;;;;;;5.13;2.78;;;15.90;99.90;;;;;;5006761;28;20268;-74
2022/09/26 06:18:19;;;;;;;4.88;2.95;;;16.20;99.90;;;;;;5021270;28;20203;-74
2022/09/26 06:20:45;;;;;;;5.90;2.90;;;16.90;99.90;;;;;;5015530;28;20580;-75
2022/09/26 06:23:11;;;;;;;5.50;2.92;;;17.50;99.90;;;;;;5031997;28;20688;-74
2022/09/26 06:25:45;;;;;;;4.30;2.72;;;17.70;99.90;;;;;;5014674;28;20262;-74
2022/09/26 06:28:11;;;;;;;3.28;2.58;;;18.30;99.90;;;;;;5021416;28;20169;-74
2022/09/26 06:30:36;;;;;;;7.00;3.00;;;18.90;99.90;;;;;;5021090;28;20322;-74
2022/09/26 06:33:02;;;;;;;4.18;2.50;;;18.80;99.90;;;;;;5032493;28;20204;-74
2022/09/26 06:35:29;;;;;;;7.40;3.10;;;19.30;99.90;;;;;;5033746;28;20763;-74
2022/09/26 06:37:57;;;;;;;5.30;2.95;;;18.80;99.90;;;;;;5035047;28;20273;-74
2022/09/26 06:40:23;;;;;;;7.70;2.85;;;18.90;99.90;;;;;;5042508;28;20184;-74
2022/09/26 06:42:49;;;;;;;5.32;2.80;;;19.20;99.90;;;;;;5012215;28;20691;-76
2022/09/26 06:45:15;;;;;;;6.47;2.50;;;19.40;99.90;;;;;;5021142;28;20199;-74
2022/09/26 06:47:41;;;;;;;4.05;2.40;;;19.30;99.90;;;;;;5013438;28;20212;-74
2022/09/26 06:50:07;;;;;;;4.60;2.65;;;19.50;99.90;;;;;;5019645;28;20270;-74
2022/09/26 06:52:43;;;;;;;8.30;2.97;;;19.60;99.90;;;;;;5009671;28;20180;-74
2022/09/26 06:55:09;;;;;;;5.75;2.70;;;19.10;99.90;;;;;;5035324;28;20200;-74
2022/09/26 06:57:39;;;;;;;3.92;3.03;;;19.30;99.90;;;;;;5012677;28;20193;-75
2022/09/26 07:00:07;;;;;;;7.40;2.75;;;19.40;99.90;;;;;;5032228;28;20586;-74
2022/09/26 07:02:33;;;;;;;8.93;3.90;;;19.50;99.90;;;;;;5042746;28;20208;-75
2022/09/26 07:05:01;;;;;;;6.05;3.50;;;19.40;99.90;;;;;;5023054;28;20210;-74
2022/09/26 07:07:28;;;;;;;6.28;4.00;;;19.20;99.90;;;;;;5019052;28;20226;-74
2022/09/26 07:09:55;;;;;;;10.52;4.20;;;19.60;99.90;;;;;;5033506;28;20247;-75
2022/09/26 07:12:21;;;;;;;7.47;3.65;;;19.80;99.90;;;;;;5026596;28;20207;-74
2022/09/26 07:14:47;;;;;;;6.13;3.90;;;20.20;99.90;;;;;;5037317;28;20211;-73
2022/09/26 07:17:16;;;;;;;6.28;3.70;;;20.30;99.90;;;;;;5031023;28;20241;-74
2022/09/26 07:19:42;;;;;;;6.78;4.20;;;20.60;99.90;;;;;;5035450;28;20221;-74
2022/09/26 07:22:09;;;;;;;7.30;4.30;;;20.90;99.90;;;;;;5040849;28;20258;-75
2022/09/26 07:24:35;;;;;;;5.80;3.53;;;20.90;99.90;;;;;;5020674;28;20274;-74
2022/09/26 07:27:01;;;;;;;4.07;3.15;;;21.30;99.90;;;;;;5029650;28;20247;-76
2022/09/26 07:29:28;;;;;;;6.65;3.28;;;20.60;99.90;;;;;;5019136;28;20210;-75
2022/09/26 07:31:53;;;;;;;3.42;3.05;;;20.30;99.90;;;;;;5015031;28;20303;-75
2022/09/26 07:34:23;;;;;;;5.60;2.80;;;20.10;99.90;;;;;;5039834;28;20328;-77
2022/09/26 07:36:53;;;;;;;5.55;3.15;;;20.30;99.90;;;;;;5023993;28;20211;-74
2022/09/26 07:39:18;;;;;;;5.15;3.78;;;19.90;99.90;;;;;;5036597;28;20195;-74
2022/09/26 07:41:47;;;;;;;5.20;2.53;;;20.30;99.90;;;;;;5026485;28;20211;-74
2022/09/26 07:44:13;;;;;;;3.00;2.20;;;20.20;99.90;;;;;;5019234;28;20211;-75
2022/09/26 07:52:07;;;;;;;6.82;2.67;;;20.70;99.90;;;;;;5024437;28;20659;-74
2022/09/26 07:54:34;;;;;;;4.22;2.45;;;20.50;99.90;;;;;;5027742;28;20212;-75
2022/09/26 07:56:59;;;;;;;3.97;2.30;;;20.40;99.90;;;;;;5010872;28;20225;-74
2022/09/26 07:59:25;;;;;;;7.60;2.00;;;20.10;99.90;;;;;;5019713;28;20281;-75
2022/09/26 08:01:53;;;;;;;4.03;2.05;;;20.00;99.90;;;;;;5038264;28;20314;-76
2022/09/26 08:04:19;;;;;;;4.55;3.28;;;19.60;99.90;;;;;;5034592;28;20608;-74
2022/09/26 08:06:44;;;;;;;4.57;1.60;;;19.60;99.90;;;;;;5034198;28;20216;-74
2022/09/26 08:09:10;;;;;;;2.67;1.55;;;19.70;99.90;;;;;;5026007;28;20308;-74
2022/09/26 08:11:37;;;;;;;3.75;2.13;;;20.00;99.90;;;;;;5040720;28;20207;-74
2022/09/26 08:14:03;;;;;;;6.85;3.75;;;20.00;99.90;;;;;;5031086;28;20227;-73
2022/09/26 08:16:32;;;;;;;6.70;2.33;;;19.70;99.90;;;;;;5030508;28;20236;-75
2022/09/26 08:18:57;;;;;;;7.25;4.30;;;19.80;99.90;;;;;;5021871;28;20203;-75
2022/09/26 08:21:23;;;;;;;5.57;1.98;;;19.80;99.90;;;;;;5018404;28;20235;-74
2022/09/26 08:23:49;;;;;;;6.10;2.10;;;19.80;99.90;;;;;;5027484;28;20223;-75
2022/09/26 08:26:15;;;;;;;6.07;3.28;;;19.70;99.90;;;;;;5023306;28;20608;-75
2022/09/26 08:28:41;;;;;;;2.95;1.85;;;19.50;99.90;;;;;;5034993;28;20173;-74
2022/09/26 08:31:07;;;;;;;6.05;3.75;;;19.30;99.90;;;;;;5028005;28;20251;-76
2022/09/26 08:33:35;;;;;;;4.85;1.83;;;19.40;99.90;;;;;;5022677;28;20218;-74
2022/09/26 08:36:07;;;;;;;2.60;1.63;;;19.40;99.90;;;;;;5034498;28;20200;-76
2022/09/26 08:38:34;;;;;;;5.65;2.65;;;19.60;99.90;;;;;;5033568;28;20679;-74
2022/09/26 08:41:22;;;;;;;3.53;1.55;;;19.80;99.90;;;;;;5024111;28;20228;-76
2022/09/26 08:44:02;;;;;;;2.97;1.48;;;19.50;99.90;;;;;;5007745;28;20295;-75
2022/09/26 08:47:00;;;;;;;5.18;2.83;;;19.70;99.90;;;;;;5030058;28;20163;-76
2022/09/26 08:49:40;;;;;;;7.55;4.72;;;20.00;99.90;;;;;;5026608;28;20199;-76
2022/09/26 08:52:21;;;;;;;4.55;2.38;;;19.80;99.90;;;;;;5005323;28;20557;-74
2022/09/26 08:54:49;;;;;;;7.00;3.20;;;19.70;99.90;;;;;;5034561;28;20208;-74
2022/09/26 08:57:33;;;;;;;4.07;2.15;;;19.60;99.90;;;;;;5012673;28;20731;-74
2022/09/26 09:00:08;;;;;;;4.22;2.42;;;19.80;99.90;;;;;;5023794;28;20687;-74
2022/09/26 09:02:51;;;;;;;2.10;1.58;;;19.50;99.90;;;;;;5022003;28;20203;-75
2022/09/26 09:05:30;;;;;;;2.70;1.60;;;19.10;99.90;;;;;;5033946;28;20241;-75
2022/09/26 09:07:57;;;;;;;3.10;1.30;;;18.70;99.90;;;;;;5024847;28;20220;-76
2022/09/26 09:10:34;;;;;;;2.67;1.08;;;18.40;99.90;;;;;;5034970;28;20196;-75
2022/09/26 09:13:14;;;;;;;2.92;1.65;;;18.30;99.90;;;;;;5037404;28;20223;-75
2022/09/26 09:15:51;;;;;;;3.97;1.67;;;18.80;99.90;;;;;;5026999;28;20262;-75
2022/09/26 09:18:29;;;;;;;3.55;1.67;;;18.90;99.90;;;;;;5017404;28;20723;-75
2022/09/26 09:21:22;;;;;;;3.10;1.60;;;19.20;99.90;;;;;;5032048;28;20212;-75
2022/09/26 09:24:22;;;;;;;3.50;2.00;;;19.40;99.90;;;;;;5027772;28;20291;-73
2022/09/26 09:27:18;;;;;;;2.38;1.30;;;19.60;99.90;;;;;;5030776;28;20213;-73
2022/09/26 09:29:47;;;;;;;2.55;1.40;;;19.50;99.90;;;;;;5012884;28;20222;-74
2022/09/26 09:32:17;;;;;;;3.00;1.15;;;19.50;99.90;;;;;;5012370;28;20211;-74
2022/09/26 09:34:44;;;;;;;3.17;1.50;;;19.60;99.90;;;;;;5011569;28;20203;-74
2022/09/26 09:37:19;;;;;;;5.45;3.28;;;19.80;99.90;;;;;;5020879;28;20170;-74
2022/09/26 09:39:47;;;;;;;1.35;1.02;;;20.10;99.90;;;;;;5014013;28;20257;-74
2022/09/26 09:42:38;;;;;;;2.35;1.33;;;20.10;99.90;;;;;;5008505;28;20239;-74
2022/09/26 09:45:31;;;;;;;3.25;1.40;;;19.40;99.90;;;;;;5017960;28;20588;-74
2022/09/26 09:47:57;;;;;;;3.38;1.38;;;19.40;99.90;;;;;;5030861;28;20217;-74
2022/09/26 09:50:41;;;;;;;3.50;1.38;;;19.40;99.90;;;;;;5032467;28;20212;-75
2022/09/26 09:53:22;;;;;;;2.97;0.95;;;19.60;99.90;;;;;;5031201;28;20231;-75
2022/09/26 09:56:10;;;;;;;3.47;1.80;;;19.90;99.90;;;;;;5030545;28;20625;-74
2022/09/26 09:59:02;;;;;;;2.60;0.90;;;19.70;99.90;;;;;;5008555;28;20177;-74
2022/09/26 10:01:40;;;;;;;2.90;1.20;;;19.60;99.90;;;;;;5034959;28;20660;-74
2022/09/26 10:04:11;;;;;;;0.93;0.70;;;19.80;99.90;;;;;;5035972;28;20244;-75
2022/09/26 10:06:36;;;;;;;1.63;1.02;;;20.00;99.90;;;;;;5026398;28;20196;-74
2022/09/26 10:09:17;;;;;;;2.20;1.00;;;20.10;99.90;;;;;;5006296;28;20208;-75
2022/09/26 10:11:43;;;;;;;3.55;1.67;;;19.80;99.90;;;;;;5019180;28;20207;-74
2022/09/26 10:14:26;;;;;;;3.60;1.65;;;19.70;99.90;;;;;;5030769;28;20587;-74
2022/09/26 10:17:13;;;;;;;2.03;1.13;;;19.10;99.90;;;;;;5022446;28;20201;-77
2022/09/26 10:19:41;;;;;;;2.97;1.80;;;19.00;99.90;;;;;;5035206;28;20545;-74
2022/09/26 10:22:23;;;;;;;4.03;1.67;;;18.90;99.90;;;;;;5040529;28;20246;-74
2022/09/26 10:24:49;;;;;;;2.63;1.50;;;18.80;99.90;;;;;;5006608;28;20215;-74
2022/09/26 10:27:20;;;;;;;3.90;1.15;;;18.40;99.90;;;;;;5015782;28;20569;-75
2022/09/26 10:29:55;;;;;;;2.33;1.30;;;18.40;99.90;;;;;;5030105;28;20204;-74
2022/09/26 10:32:21;;;;;;;3.85;1.40;;;18.50;99.90;;;;;;5014178;28;20206;-74
2022/09/26 10:35:23;;;;;;;2.88;1.65;;;18.60;99.90;;;;;;5020812;28;20225;-73
2022/09/26 10:38:22;;;;;;;3.70;1.65;;;18.60;99.90;;;;;;5030803;28;20211;-74
2022/09/26 10:43:34;;;;;;;5.97;1.60;;;18.80;99.90;;;;;;5058671;28;20237;-69
2022/09/26 10:46:16;;;;;;;4.13;1.88;;;18.70;99.90;;;;;;5057004;28;20168;-68
2022/09/26 10:48:58;;;;;;;8.45;1.80;;;18.50;99.90;;;;;;5047911;28;21015;-69
2022/09/26 10:51:56;;;;;;;5.95;1.35;;;18.50;99.90;;;;;;5050291;28;20207;-69
2022/09/26 10:54:25;;;;;;;3.38;1.27;;;18.40;99.90;;;;;;5045192;28;20216;-69
2022/09/26 10:56:56;;;;;;;2.38;1.00;;;18.30;99.90;;;;;;5046217;28;20211;-70
2022/09/26 10:59:30;;;;;;;4.00;1.20;;;18.20;99.90;;;;;;5032712;28;20233;-73
2022/09/26 11:01:57;;;;;;;4.97;1.50;;;18.40;99.90;;;;;;5037567;28;20208;-71
2022/09/26 11:07:23;;;;;;;5.15;2.55;;;18.50;99.90;;;;;;5051423;28;20246;-73
2022/09/26 11:09:56;;;;;;;7.63;4.00;;;18.50;99.90;;;;;;5034092;28;20207;-72
2022/09/26 11:12:30;;;;;;;1.67;1.02;;;18.50;99.90;;;;;;5050021;28;20236;-72
2022/09/26 11:15:10;;;;;;;1.80;1.48;;;18.30;99.90;;;;;;5045764;28;20216;-71
2022/09/26 11:17:47;;;;;;;4.18;1.00;;;18.40;99.90;;;;;;5048656;28;20201;-71
2022/09/26 11:20:53;;;;;;;2.17;0.98;;;18.30;99.90;;;;;;5037423;28;20297;-71
2022/09/26 11:23:56;;;;;;;4.50;1.00;;;18.40;99.90;;;;;;5028740;28;20568;-71
2022/09/26 11:26:58;;;;;;;2.92;1.40;;;18.30;99.90;;;;;;5046404;28;20206;-71
2022/09/26 11:29:40;;;;;;;1.95;1.30;;;18.20;99.90;;;;;;5049949;28;20225;-70
2022/09/26 11:32:12;;;;;;;2.25;1.40;;;18.40;99.90;;;;;;5046954;28;20233;-73
2022/09/26 11:34:39;;;;;;;2.92;1.48;;;18.50;99.90;;;;;;5040669;28;20206;-73
2022/09/26 11:37:28;;;;;;;2.55;1.33;;;18.50;99.90;;;;;;5060723;28;20166;-74
2022/09/26 11:40:08;;;;;;;2.25;0.85;;;18.40;99.90;;;;;;5048598;28;20208;-74
2022/09/26 11:42:45;;;;;;;3.28;1.08;;;18.30;99.90;;;;;;5042839;28;20277;-73
2022/09/26 11:45:49;;;;;;;2.50;1.05;;;18.20;99.90;;;;;;5040460;28;20581;-73
2022/09/26 11:48:23;;;;;;;2.83;1.42;;;18.10;99.90;;;;;;5012460;28;20316;-71
2022/09/26 11:50:58;;;;;;;3.13;1.20;;;18.30;99.90;;;;;;5050587;28;20198;-74
2022/09/26 11:53:46;;;;;;;2.63;0.95;;;18.50;99.90;;;;;;5046536;28;20203;-71
2022/09/26 11:56:35;;;;;;;3.95;1.45;;;18.50;99.90;;;;;;5033561;28;20220;-73
2022/09/26 11:59:07;;;;;;;1.70;1.20;;;18.80;99.90;;;;;;5025553;28;20220;-72
2022/09/26 12:01:45;;;;;;;2.35;1.27;;;18.90;99.90;;;;;;5052140;28;20191;-71
2022/09/26 12:04:29;;;;;;;3.13;1.05;;;18.80;99.90;;;;;;5053288;28;20221;-72
2022/09/26 12:07:28;;;;;;;2.03;1.50;;;18.70;99.90;;;;;;5044956;28;20204;-72
2022/09/26 12:10:03;;;;;;;3.47;1.60;;;18.70;99.90;;;;;;5035599;28;20207;-72
2022/09/26 12:12:41;;;;;;;3.08;1.52;;;18.60;99.90;;;;;;5053548;28;20252;-72
2022/09/26 12:15:20;;;;;;;2.15;1.05;;;18.60;99.90;;;;;;5046570;28;20203;-75
2022/09/26 12:18:11;;;;;;;3.80;1.30;;;18.60;99.90;;;;;;5046456;28;20204;-73
2022/09/26 12:21:01;;;;;;;4.35;1.52;;;18.40;99.90;;;;;;5047945;28;20206;-76
2022/09/26 12:23:34;;;;;;;3.90;1.20;;;18.40;99.90;;;;;;5045398;28;20352;-76
2022/09/26 12:26:07;;;;;;;3.60;1.55;;;18.20;99.90;;;;;;5023827;28;20204;-75
2022/09/26 12:28:44;;;;;;;2.42;1.55;;;17.90;99.90;;;;;;5055566;28;20201;-72
2022/09/26 12:31:33;;;;;;;4.40;1.65;;;18.00;99.90;;;;;;5048380;28;20398;-73
2022/09/26 12:34:20;;;;;;;5.68;1.50;;;18.10;99.90;;;;;;5052363;28;20203;-73
2022/09/26 12:37:08;;;;;;;3.30;1.30;;;18.10;99.90;;;;;;5054657;28;20204;-76
2022/09/26 12:40:05;;;;;;;3.13;1.67;;;18.10;99.90;;;;;;5037615;28;20264;-76
2022/09/26 12:42:59;;;;;;;5.57;1.85;;;18.10;99.90;;;;;;5046409;28;20697;-75
2022/09/26 12:45:52;;;;;;;4.55;1.50;;;18.10;99.90;;;;;;5055722;28;20677;-73
2022/09/26 12:48:55;;;;;;;2.05;1.20;;;18.10;99.90;;;;;;5048183;28;20214;-70
2022/09/26 12:51:42;;;;;;;3.67;1.40;;;18.10;99.90;;;;;;5051589;28;20229;-69
2022/09/26 12:54:26;;;;;;;4.00;1.40;;;17.90;99.90;;;;;;5056928;28;20208;-73
2022/09/26 12:57:20;;;;;;;3.30;1.55;;;18.10;99.90;;;;;;5050888;28;20692;-74
2022/09/26 13:00:01;;;;;;;3.00;1.50;;;18.20;99.90;;;;;;5043414;28;20236;-75
2022/09/26 13:03:04;;;;;;;5.50;1.17;;;18.00;99.90;;;;;;5045747;28;20563;-77
2022/09/26 13:06:00;;;;;;;8.18;1.10;;;18.00;99.90;;;;;;5052179;28;20206;-76
2022/09/26 13:09:02;;;;;;;2.70;1.10;;;18.00;99.90;;;;;;5049250;28;20245;-77
2022/09/26 13:12:02;;;;;;;2.95;1.42;;;18.00;99.90;;;;;;5059345;28;20285;-77
2022/09/26 13:14:46;;;;;;;4.15;1.33;;;17.90;99.90;;;;;;5039995;28;20238;-73
2022/09/26 13:17:23;;;;;;;4.18;1.63;;;18.00;99.90;;;;;;5046529;28;20274;-74
2022/09/26 13:19:52;;;;;;;4.18;1.27;;;17.80;99.90;;;;;;5053959;28;20237;-71
2022/09/26 13:22:41;;;;;;;4.15;1.40;;;17.80;99.90;;;;;;5050381;28;20244;-71
2022/09/26 13:25:09;;;;;;;5.72;1.65;;;17.80;99.90;;;;;;5047129;28;20210;-71
2022/09/26 13:27:45;;;;;;;2.72;1.30;;;17.90;99.90;;;;;;5057865;28;20618;-74
2022/09/26 13:30:28;;;;;;;3.72;1.38;;;18.00;99.90;;;;;;5039960;28;20204;-73
2022/09/26 13:33:30;;;;;;;2.30;1.48;;;17.80;99.90;;;;;;5048805;28;20218;-72